sensor_id;sensor_type;location;lat;lon;timestamp;pressure;altitude;pressure_sealevel;temperature;humidity
15646;BME280;7922;43.622;1.476;2023-12-07T00:00:58;100331.44;;;0.91;100.00
15646;BME280;7922;43.622;1.476;2023-12-07T00:03:24;100334.94;;;0.98;100.00
15646;BME280;7922;43.622;1.476;2023-12-07T00:05:49;100316.66;;;0.87;100.00
15646;BME280;7922;43.622;1.476;2023-12-07T00:08:14;100296.59;;;0.76;100.00
15646;BME280;7922;43.622;1.476;2023-12-07T00:10:39;100304.47;;;0.80;100.00
15646;BME280;7922;43.622;1.476;2023-12-07T00:13:05;100303.56;;;0.74;100.00
15646;BME280;7922;43.622;1.476;2023-12-07T00:15:30;100310.50;;;0.76;100.00
15646;BME280;7922;43.622;1.476;2023-12-07T00:17:55;100320.97;;;0.78;100.00
15646;BME280;7922;43.622;1.476;2023-12-07T00:20:20;100283.53;;;0.56;100.00
15646;BME280;7922;43.622;1.476;2023-12-07T00:22:46;100310.50;;;0.68;100.00
15646;BME280;7922;43.622;1.476;2023-12-07T00:25:11;100329.63;;;0.75;100.00
15646;BME280;7922;43.622;1.476;2023-12-07T00:27:36;100299.19;;;0.63;100.00
15646;BME280;7922;43.622;1.476;2023-12-07T00:30:02;100312.22;;;0.59;100.00
15646;BME280;7922;43.622;1.476;2023-12-07T00:32:27;100288.69;;;0.46;100.00
15646;BME280;7922;43.622;1.476;2023-12-07T00:34:53;100342.66;;;0.70;100.00
15646;BME280;7922;43.622;1.476;2023-12-07T00:37:18;100326.09;;;0.61;100.00
15646;BME280;7922;43.622;1.476;2023-12-07T00:39:43;100315.66;;;0.56;100.00
15646;BME280;7922;43.622;1.476;2023-12-07T00:42:09;100336.53;;;0.61;100.00
15646;BME280;7922;43.622;1.476;2023-12-07T00:44:39;100332.19;;;0.55;100.00
15646;BME280;7922;43.622;1.476;2023-12-07T00:47:04;100331.31;;;0.56;100.00
15646;BME280;7922;43.622;1.476;2023-12-07T00:49:29;100346.13;;;0.63;100.00
15646;BME280;7922;43.622;1.476;2023-12-07T00:51:55;100309.56;;;0.45;100.00
15646;BME280;7922;43.622;1.476;2023-12-07T00:54:20;100353.09;;;0.66;100.00
15646;BME280;7922;43.622;1.476;2023-12-07T00:56:45;100331.28;;;0.53;100.00
15646;BME280;7922;43.622;1.476;2023-12-07T00:59:10;100345.25;;;0.58;100.00
15646;BME280;7922;43.622;1.476;2023-12-07T01:01:36;100348.66;;;0.45;100.00
15646;BME280;7922;43.622;1.476;2023-12-07T01:04:01;100341.72;;;0.48;100.00
15646;BME280;7922;43.622;1.476;2023-12-07T01:06:26;100344.28;;;0.42;100.00
15646;BME280;7922;43.622;1.476;2023-12-07T01:08:51;100344.25;;;0.39;100.00
15646;BME280;7922;43.622;1.476;2023-12-07T01:11:17;100344.28;;;0.38;100.00
15646;BME280;7922;43.622;1.476;2023-12-07T01:13:42;100328.63;;;0.33;100.00
15646;BME280;7922;43.622;1.476;2023-12-07T01:16:07;100354.72;;;0.41;100.00
15646;BME280;7922;43.622;1.476;2023-12-07T01:18:33;100325.09;;;0.28;100.00
15646;BME280;7922;43.622;1.476;2023-12-07T01:20:58;100340.75;;;0.31;100.00
15646;BME280;7922;43.622;1.476;2023-12-07T01:23:23;100346.00;;;0.39;100.00
15646;BME280;7922;43.622;1.476;2023-12-07T01:25:48;100355.59;;;0.49;100.00
15646;BME280;7922;43.622;1.476;2023-12-07T01:28:14;100351.25;;;0.45;100.00
15646;BME280;7922;43.622;1.476;2023-12-07T01:30:39;100316.41;;;0.24;100.00
15646;BME280;7922;43.622;1.476;2023-12-07T01:33:04;100346.91;;;0.47;100.00
15646;BME280;7922;43.622;1.476;2023-12-07T01:35:29;100344.31;;;0.44;100.00
15646;BME280;7922;43.622;1.476;2023-12-07T01:37:55;100351.22;;;0.43;100.00
15646;BME280;7922;43.622;1.476;2023-12-07T01:40:20;100352.06;;;0.39;100.00
15646;BME280;7922;43.622;1.476;2023-12-07T01:42:50;100329.41;;;0.20;100.00
15646;BME280;7922;43.622;1.476;2023-12-07T01:45:15;100336.38;;;0.19;100.00
15646;BME280;7922;43.622;1.476;2023-12-07T01:47:41;100337.16;;;0.11;100.00
15646;BME280;7922;43.622;1.476;2023-12-07T01:50:07;100329.41;;;0.15;100.00
15646;BME280;7922;43.622;1.476;2023-12-07T01:52:38;100296.31;;;-0.01;100.00
15646;BME280;7922;43.622;1.476;2023-12-07T01:55:06;100292.81;;;-0.06;100.00
15646;BME280;7922;43.622;1.476;2023-12-07T01:57:34;100329.41;;;0.17;100.00
15646;BME280;7922;43.622;1.476;2023-12-07T02:00:00;100308.50;;;0.11;100.00
15646;BME280;7922;43.622;1.476;2023-12-07T02:02:25;100308.50;;;0.11;100.00
15646;BME280;7922;43.622;1.476;2023-12-07T02:04:51;100328.47;;;0.07;100.00
15646;BME280;7922;43.622;1.476;2023-12-07T02:07:17;100338.03;;;0.05;100.00
15646;BME280;7922;43.622;1.476;2023-12-07T02:09:42;100350.19;;;0.09;100.00
15646;BME280;7922;43.622;1.476;2023-12-07T02:12:08;100339.78;;;0.08;100.00
15646;BME280;7922;43.622;1.476;2023-12-07T02:14:33;100324.13;;;0.05;100.00
15646;BME280;7922;43.622;1.476;2023-12-07T02:17:10;100329.34;;;0.08;100.00
15646;BME280;7922;43.622;1.476;2023-12-07T02:22:42;100330.16;;;-0.01;100.00
15646;BME280;7922;43.622;1.476;2023-12-07T02:25:10;100308.38;;;-0.15;100.00
15646;BME280;7922;43.622;1.476;2023-12-07T02:30:08;100311.03;;;-0.09;100.00
15646;BME280;7922;43.622;1.476;2023-12-07T02:32:35;100334.53;;;0.00;100.00
15646;BME280;7922;43.622;1.476;2023-12-07T02:35:01;100348.38;;;-0.01;100.00
15646;BME280;7922;43.622;1.476;2023-12-07T02:37:28;100344.03;;;-0.07;100.00
15646;BME280;7922;43.622;1.476;2023-12-07T02:39:55;100336.97;;;-0.18;100.00
15646;BME280;7922;43.622;1.476;2023-12-07T02:42:22;100323.97;;;-0.21;100.00
15646;BME280;7922;43.622;1.476;2023-12-07T02:44:48;100339.63;;;-0.15;100.00
15646;BME280;7922;43.622;1.476;2023-12-07T02:47:13;100332.72;;;-0.10;100.00
15646;BME280;7922;43.622;1.476;2023-12-07T02:49:39;100312.72;;;-0.16;100.00
15646;BME280;7922;43.622;1.476;2023-12-07T02:52:05;100311.81;;;-0.19;100.00
15646;BME280;7922;43.622;1.476;2023-12-07T02:54:31;100307.53;;;-0.13;100.00
15646;BME280;7922;43.622;1.476;2023-12-07T02:56:56;100298.81;;;-0.15;100.00
15646;BME280;7922;43.622;1.476;2023-12-07T02:59:21;100294.47;;;-0.19;100.00
15646;BME280;7922;43.622;1.476;2023-12-07T03:01:46;100306.63;;;-0.21;100.00
15646;BME280;7922;43.622;1.476;2023-12-07T03:04:12;100278.78;;;-0.31;100.00
15646;BME280;7922;43.622;1.476;2023-12-07T03:06:37;100283.16;;;-0.27;100.00
15646;BME280;7922;43.622;1.476;2023-12-07T03:09:02;100298.81;;;-0.19;100.00
15646;BME280;7922;43.622;1.476;2023-12-07T03:11:27;100265.72;;;-0.39;100.00
15646;BME280;7922;43.622;1.476;2023-12-07T03:13:53;100271.81;;;-0.34;100.00
15646;BME280;7922;43.622;1.476;2023-12-07T03:16:18;100268.28;;;-0.45;100.00
15646;BME280;7922;43.622;1.476;2023-12-07T03:18:43;100277.03;;;-0.35;100.00
15646;BME280;7922;43.622;1.476;2023-12-07T03:21:08;100257.06;;;-0.39;100.00
15646;BME280;7922;43.622;1.476;2023-12-07T03:23:34;100280.56;;;-0.22;100.00
15646;BME280;7922;43.622;1.476;2023-12-07T03:25:59;100257.97;;;-0.27;100.00
15646;BME280;7922;43.622;1.476;2023-12-07T03:28:24;100257.97;;;-0.30;100.00
15646;BME280;7922;43.622;1.476;2023-12-07T03:30:49;100281.44;;;-0.22;100.00
15646;BME280;7922;43.622;1.476;2023-12-07T03:33:15;100241.34;;;-0.52;100.00
15646;BME280;7922;43.622;1.476;2023-12-07T03:35:40;100241.38;;;-0.44;100.00
15646;BME280;7922;43.622;1.476;2023-12-07T03:38:06;100273.63;;;-0.22;100.00
15646;BME280;7922;43.622;1.476;2023-12-07T03:40:31;100281.44;;;-0.20;100.00
15646;BME280;7922;43.622;1.476;2023-12-07T03:42:56;100274.53;;;-0.17;100.00
15646;BME280;7922;43.622;1.476;2023-12-07T03:45:22;100240.56;;;-0.38;100.00
15646;BME280;7922;43.622;1.476;2023-12-07T03:47:47;100245.81;;;-0.31;100.00
15646;BME280;7922;43.622;1.476;2023-12-07T03:50:12;100230.16;;;-0.40;100.00
15646;BME280;7922;43.622;1.476;2023-12-07T03:52:38;100256.25;;;-0.28;100.00
15646;BME280;7922;43.622;1.476;2023-12-07T03:55:03;100253.56;;;-0.38;100.00
15646;BME280;7922;43.622;1.476;2023-12-07T03:57:28;100254.44;;;-0.39;100.00
15646;BME280;7922;43.622;1.476;2023-12-07T03:59:54;100256.19;;;-0.38;100.00
15646;BME280;7922;43.622;1.476;2023-12-07T04:02:19;100246.66;;;-0.39;100.00
15646;BME280;7922;43.622;1.476;2023-12-07T04:04:44;100266.63;;;-0.31;100.00
15646;BME280;7922;43.622;1.476;2023-12-07T04:07:09;100266.63;;;-0.31;100.00
15646;BME280;7922;43.622;1.476;2023-12-07T04:09:35;100255.31;;;-0.39;100.00
15646;BME280;7922;43.622;1.476;2023-12-07T04:12:00;100266.63;;;-0.32;100.00
15646;BME280;7922;43.622;1.476;2023-12-07T04:14:25;100271.84;;;-0.32;100.00
15646;BME280;7922;43.622;1.476;2023-12-07T04:16:51;100287.50;;;-0.25;100.00
15646;BME280;7922;43.622;1.476;2023-12-07T04:19:16;100255.41;;;-0.25;100.00
15646;BME280;7922;43.622;1.476;2023-12-07T04:21:41;100286.75;;;-0.05;100.00
15646;BME280;7922;43.622;1.476;2023-12-07T04:24:06;100277.19;;;-0.09;100.00
15646;BME280;7922;43.622;1.476;2023-12-07T04:26:32;100249.44;;;-0.03;100.00
15646;BME280;7922;43.622;1.476;2023-12-07T04:28:57;100254.66;;;0.02;100.00
15646;BME280;7922;43.622;1.476;2023-12-07T04:31:22;100258.97;;;-0.11;100.00
15646;BME280;7922;43.622;1.476;2023-12-07T04:33:47;100272.88;;;-0.03;100.00
15646;BME280;7922;43.622;1.476;2023-12-07T04:36:13;100265.91;;;-0.10;100.00
15646;BME280;7922;43.622;1.476;2023-12-07T04:38:38;100269.38;;;-0.11;100.00
15646;BME280;7922;43.622;1.476;2023-12-07T04:41:04;100238.03;;;-0.23;99.77
15646;BME280;7922;43.622;1.476;2023-12-07T04:43:29;100255.50;;;-0.07;100.00
15646;BME280;7922;43.622;1.476;2023-12-07T04:45:54;100283.31;;;0.05;100.00
15646;BME280;7922;43.622;1.476;2023-12-07T04:48:19;100268.53;;;-0.01;100.00
15646;BME280;7922;43.622;1.476;2023-12-07T04:50:45;100266.84;;;0.06;99.87
15646;BME280;7922;43.622;1.476;2023-12-07T04:53:10;100248.56;;;-0.03;99.97
15646;BME280;7922;43.622;1.476;2023-12-07T04:55:35;100228.56;;;-0.12;99.99
15646;BME280;7922;43.622;1.476;2023-12-07T04:58:01;100256.44;;;0.12;99.97
15646;BME280;7922;43.622;1.476;2023-12-07T05:00:26;100253.00;;;0.16;99.99
15646;BME280;7922;43.622;1.476;2023-12-07T05:02:51;100252.09;;;0.08;99.66
15646;BME280;7922;43.622;1.476;2023-12-07T05:05:17;100252.06;;;0.07;100.00
15646;BME280;7922;43.622;1.476;2023-12-07T05:07:42;100243.38;;;0.02;99.61
15646;BME280;7922;43.622;1.476;2023-12-07T05:10:07;100243.38;;;0.03;99.73
15646;BME280;7922;43.622;1.476;2023-12-07T05:12:33;100246.91;;;0.11;99.20
15646;BME280;7922;43.622;1.476;2023-12-07T05:14:58;100239.91;;;0.07;98.88
15646;BME280;7922;43.622;1.476;2023-12-07T05:17:23;100190.31;;;-0.22;99.40
15646;BME280;7922;43.622;1.476;2023-12-07T05:19:49;100233.88;;;0.14;100.00
15646;BME280;7922;43.622;1.476;2023-12-07T05:22:14;100227.81;;;0.12;98.48
15646;BME280;7922;43.622;1.476;2023-12-07T05:24:39;100231.28;;;0.13;99.23
15646;BME280;7922;43.622;1.476;2023-12-07T05:27:05;100230.44;;;0.18;98.79
15646;BME280;7922;43.622;1.476;2023-12-07T05:29:30;100215.66;;;0.16;98.15
15646;BME280;7922;43.622;1.476;2023-12-07T05:31:55;100216.53;;;0.19;98.71
15646;BME280;7922;43.622;1.476;2023-12-07T05:34:20;100196.53;;;0.08;98.79
15646;BME280;7922;43.622;1.476;2023-12-07T05:36:46;100187.84;;;0.10;98.81
15646;BME280;7922;43.622;1.476;2023-12-07T05:39:11;100177.44;;;0.09;98.65
15646;BME280;7922;43.622;1.476;2023-12-07T05:41:37;100183.56;;;0.18;98.66
15646;BME280;7922;43.622;1.476;2023-12-07T05:44:02;100172.22;;;0.13;98.75
15646;BME280;7922;43.622;1.476;2023-12-07T05:46:27;100163.53;;;0.14;98.75
15646;BME280;7922;43.622;1.476;2023-12-07T05:48:52;100139.22;;;0.06;98.84
15646;BME280;7922;43.622;1.476;2023-12-07T05:51:18;100168.78;;;0.17;98.31
15646;BME280;7922;43.622;1.476;2023-12-07T05:53:44;100148.78;;;0.04;98.75
15646;BME280;7922;43.622;1.476;2023-12-07T05:56:10;100181.78;;;0.14;98.47
15646;BME280;7922;43.622;1.476;2023-12-07T05:58:35;100163.53;;;0.07;98.64
15646;BME280;7922;43.622;1.476;2023-12-07T06:01:01;100166.16;;;0.13;98.79
15646;BME280;7922;43.622;1.476;2023-12-07T06:03:26;100140.09;;;0.07;99.34
15646;BME280;7922;43.622;1.476;2023-12-07T06:05:52;100165.31;;;0.20;98.65
15646;BME280;7922;43.622;1.476;2023-12-07T06:08:17;100165.31;;;0.24;99.08
15646;BME280;7922;43.622;1.476;2023-12-07T06:10:42;100160.09;;;0.21;98.97
15646;BME280;7922;43.622;1.476;2023-12-07T06:13:07;100165.31;;;0.18;99.12
15646;BME280;7922;43.622;1.476;2023-12-07T06:15:33;100180.97;;;0.29;99.50
15646;BME280;7922;43.622;1.476;2023-12-07T06:17:59;100166.19;;;0.25;99.25
15646;BME280;7922;43.622;1.476;2023-12-07T06:20:24;100136.63;;;0.09;98.63
15646;BME280;7922;43.622;1.476;2023-12-07T06:22:49;100174.03;;;0.34;98.43
15646;BME280;7922;43.622;1.476;2023-12-07T06:25:14;100181.84;;;0.42;97.95
15646;BME280;7922;43.622;1.476;2023-12-07T06:27:40;100167.06;;;0.39;98.34
15646;BME280;7922;43.622;1.476;2023-12-07T06:30:05;100165.34;;;0.26;98.23
15646;BME280;7922;43.622;1.476;2023-12-07T06:32:32;100183.56;;;0.32;98.30
15646;BME280;7922;43.622;1.476;2023-12-07T06:34:57;100187.94;;;0.47;98.02
15646;BME280;7922;43.622;1.476;2023-12-07T06:37:23;100171.47;;;0.48;98.29
15646;BME280;7922;43.622;1.476;2023-12-07T06:39:48;100195.78;;;0.58;98.20
15646;BME280;7922;43.622;1.476;2023-12-07T06:42:14;100158.41;;;0.50;97.70
15646;BME280;7922;43.622;1.476;2023-12-07T06:44:39;100141.91;;;0.43;98.11
15646;BME280;7922;43.622;1.476;2023-12-07T06:47:04;100159.28;;;0.58;97.99
15646;BME280;7922;43.622;1.476;2023-12-07T06:49:30;100149.72;;;0.46;98.41
15646;BME280;7922;43.622;1.476;2023-12-07T06:51:55;100144.50;;;0.40;99.15
15646;BME280;7922;43.622;1.476;2023-12-07T06:54:20;100147.09;;;0.32;98.89
15646;BME280;7922;43.622;1.476;2023-12-07T06:56:46;100166.22;;;0.39;98.57
15646;BME280;7922;43.622;1.476;2023-12-07T06:59:11;100192.28;;;0.43;98.15
15646;BME280;7922;43.622;1.476;2023-12-07T07:01:36;100169.66;;;0.36;98.23
15646;BME280;7922;43.622;1.476;2023-12-07T07:04:02;100174.91;;;0.42;98.31
15646;BME280;7922;43.622;1.476;2023-12-07T07:06:27;100165.34;;;0.38;98.15
15646;BME280;7922;43.622;1.476;2023-12-07T07:08:52;100155.81;;;0.37;98.32
15646;BME280;7922;43.622;1.476;2023-12-07T07:11:17;100167.09;;;0.41;98.15
15646;BME280;7922;43.622;1.476;2023-12-07T07:13:43;100149.72;;;0.34;98.13
15646;BME280;7922;43.622;1.476;2023-12-07T07:16:08;100160.13;;;0.43;98.11
15646;BME280;7922;43.622;1.476;2023-12-07T07:18:33;100110.63;;;0.15;98.04
15646;BME280;7922;43.622;1.476;2023-12-07T07:20:58;100090.59;;;0.04;97.67
15646;BME280;7922;43.622;1.476;2023-12-07T07:23:24;100170.56;;;0.46;98.04
15646;BME280;7922;43.622;1.476;2023-12-07T07:25:49;100165.34;;;0.43;98.02
15646;BME280;7922;43.622;1.476;2023-12-07T07:28:14;100175.78;;;0.43;98.05
15646;BME280;7922;43.622;1.476;2023-12-07T07:30:42;100181.84;;;0.34;99.01
15646;BME280;7922;43.622;1.476;2023-12-07T07:33:07;100171.41;;;0.36;99.38
15646;BME280;7922;43.622;1.476;2023-12-07T07:35:32;100166.22;;;0.43;98.93
15646;BME280;7922;43.622;1.476;2023-12-07T07:37:58;100161.03;;;0.63;98.87
15646;BME280;7922;43.622;1.476;2023-12-07T07:40:23;100161.91;;;0.73;99.17
15646;BME280;7922;43.622;1.476;2023-12-07T07:42:48;100153.22;;;0.82;98.64
15646;BME280;7922;43.622;1.476;2023-12-07T07:45:14;100135.84;;;0.78;98.70
15646;BME280;7922;43.622;1.476;2023-12-07T07:47:39;100128.00;;;0.76;98.00
15646;BME280;7922;43.622;1.476;2023-12-07T07:50:06;100100.22;;;0.67;98.29
15646;BME280;7922;43.622;1.476;2023-12-07T07:52:34;100138.44;;;0.96;98.18
15646;BME280;7922;43.622;1.476;2023-12-07T07:55:00;100128.88;;;1.03;97.93
15646;BME280;7922;43.622;1.476;2023-12-07T07:57:26;100151.44;;;1.19;97.71
15646;BME280;7922;43.622;1.476;2023-12-07T07:59:54;100138.44;;;1.13;97.32
15646;BME280;7922;43.622;1.476;2023-12-07T08:02:20;100147.94;;;1.29;96.40
15646;BME280;7922;43.622;1.476;2023-12-07T08:04:45;100120.16;;;1.20;96.18
15646;BME280;7922;43.622;1.476;2023-12-07T08:07:11;100121.84;;;1.35;95.46
15646;BME280;7922;43.622;1.476;2023-12-07T08:09:36;100142.66;;;1.60;95.10
15646;BME280;7922;43.622;1.476;2023-12-07T08:12:01;100133.88;;;1.70;94.92
15646;BME280;7922;43.622;1.476;2023-12-07T08:14:27;100128.63;;;1.78;94.79
15646;BME280;7922;43.622;1.476;2023-12-07T08:16:52;100118.19;;;1.76;94.84
15646;BME280;7922;43.622;1.476;2023-12-07T08:19:17;100109.44;;;1.88;94.39
15646;BME280;7922;43.622;1.476;2023-12-07T08:21:43;100116.31;;;2.03;94.23
15646;BME280;7922;43.622;1.476;2023-12-07T08:24:08;100101.50;;;2.06;93.43
15646;BME280;7922;43.622;1.476;2023-12-07T08:26:33;100113.53;;;2.32;93.57
15646;BME280;7922;43.622;1.476;2023-12-07T08:28:58;100109.09;;;2.41;93.35
15646;BME280;7922;43.622;1.476;2023-12-07T08:31:24;100107.28;;;2.53;92.56
15646;BME280;7922;43.622;1.476;2023-12-07T08:33:50;100088.16;;;2.43;91.86
15646;BME280;7922;43.622;1.476;2023-12-07T08:36:16;100113.38;;;2.50;91.00
15646;BME280;7922;43.622;1.476;2023-12-07T08:38:41;100119.44;;;2.57;91.98
15646;BME280;7922;43.622;1.476;2023-12-07T08:41:06;100107.25;;;2.59;91.81
15646;BME280;7922;43.622;1.476;2023-12-07T08:43:32;100100.13;;;2.75;92.17
15646;BME280;7922;43.622;1.476;2023-12-07T08:46:00;100102.50;;;3.01;90.99
15646;BME280;7922;43.622;1.476;2023-12-07T08:48:25;100089.34;;;3.07;90.76
15646;BME280;7922;43.622;1.476;2023-12-07T08:50:51;100104.88;;;3.27;90.96
15646;BME280;7922;43.622;1.476;2023-12-07T08:53:16;100070.94;;;3.18;90.53
15646;BME280;7922;43.622;1.476;2023-12-07T08:55:41;100070.00;;;3.23;90.17
15646;BME280;7922;43.622;1.476;2023-12-07T08:58:07;100098.47;;;3.51;89.08
15646;BME280;7922;43.622;1.476;2023-12-07T09:00:33;100065.53;;;3.31;88.35
15646;BME280;7922;43.622;1.476;2023-12-07T09:02:58;100085.28;;;3.60;88.09
15646;BME280;7922;43.622;1.476;2023-12-07T09:05:24;100053.75;;;3.68;88.09
15646;BME280;7922;43.622;1.476;2023-12-07T09:07:49;100071.75;;;3.92;88.52
15646;BME280;7922;43.622;1.476;2023-12-07T09:10:15;100067.13;;;4.09;88.41
15646;BME280;7922;43.622;1.476;2023-12-07T09:12:40;100068.75;;;4.17;88.51
15646;BME280;7922;43.622;1.476;2023-12-07T09:15:06;100062.53;;;4.25;89.20
15646;BME280;7922;43.622;1.476;2023-12-07T09:17:32;100046.66;;;4.33;88.50
15646;BME280;7922;43.622;1.476;2023-12-07T09:19:57;100003.94;;;4.26;88.12
15646;BME280;7922;43.622;1.476;2023-12-07T09:22:22;100042.63;;;4.65;88.76
15646;BME280;7922;43.622;1.476;2023-12-07T09:24:47;100044.25;;;4.72;89.24
15646;BME280;7922;43.622;1.476;2023-12-07T09:27:13;100044.66;;;4.97;89.65
15646;BME280;7922;43.622;1.476;2023-12-07T09:29:39;100040.78;;;5.19;90.53
15646;BME280;7922;43.622;1.476;2023-12-07T09:32:06;100039.16;;;5.54;90.86
15646;BME280;7922;43.622;1.476;2023-12-07T09:34:31;100024.72;;;5.75;92.00
15646;BME280;7922;43.622;1.476;2023-12-07T09:37:09;100007.84;;;5.84;91.62
15646;BME280;7922;43.622;1.476;2023-12-07T09:39:35;100018.69;;;6.10;91.45
15646;BME280;7922;43.622;1.476;2023-12-07T09:42:01;100021.53;;;6.37;91.38
15646;BME280;7922;43.622;1.476;2023-12-07T09:44:26;100014.09;;;6.54;90.68
15646;BME280;7922;43.622;1.476;2023-12-07T09:46:52;100005.66;;;6.75;90.20
15646;BME280;7922;43.622;1.476;2023-12-07T09:49:17;100025.16;;;7.01;89.51
15646;BME280;7922;43.622;1.476;2023-12-07T09:51:44;99999.63;;;7.03;89.63
15646;BME280;7922;43.622;1.476;2023-12-07T09:54:11;100015.53;;;7.31;89.55
15646;BME280;7922;43.622;1.476;2023-12-07T09:56:37;100004.81;;;7.37;88.89
15646;BME280;7922;43.622;1.476;2023-12-07T09:59:02;99990.31;;;7.52;88.43
15646;BME280;7922;43.622;1.476;2023-12-07T10:01:28;100005.59;;;7.70;88.15
15646;BME280;7922;43.622;1.476;2023-12-07T10:06:44;99978.41;;;7.96;86.03
15646;BME280;7922;43.622;1.476;2023-12-07T10:09:09;99976.00;;;8.17;85.58
15646;BME280;7922;43.622;1.476;2023-12-07T10:11:35;99940.81;;;8.16;84.12
15646;BME280;7922;43.622;1.476;2023-12-07T10:14:00;99976.44;;;8.56;82.77
15646;BME280;7922;43.622;1.476;2023-12-07T10:16:25;99964.56;;;8.70;81.68
15646;BME280;7922;43.622;1.476;2023-12-07T10:18:50;99970.78;;;8.92;81.50
15646;BME280;7922;43.622;1.476;2023-12-07T10:21:16;99962.38;;;9.06;80.67
15646;BME280;7922;43.622;1.476;2023-12-07T10:23:42;99952.44;;;9.12;80.37
15646;BME280;7922;43.622;1.476;2023-12-07T10:26:10;99946.66;;;9.26;79.83
15646;BME280;7922;43.622;1.476;2023-12-07T10:28:36;99948.81;;;9.38;79.22
15646;BME280;7922;43.622;1.476;2023-12-07T10:31:01;99941.63;;;9.42;78.22
15646;BME280;7922;43.622;1.476;2023-12-07T10:33:26;99930.63;;;9.53;77.50
15646;BME280;7922;43.622;1.476;2023-12-07T10:35:52;99929.72;;;9.54;77.06
15646;BME280;7922;43.622;1.476;2023-12-07T10:38:17;99930.75;;;9.50;77.08
15646;BME280;7922;43.622;1.476;2023-12-07T10:40:42;99919.69;;;9.62;77.15
15646;BME280;7922;43.622;1.476;2023-12-07T10:43:08;99913.00;;;9.53;76.37
15646;BME280;7922;43.622;1.476;2023-12-07T10:45:35;99908.50;;;9.55;76.25
15646;BME280;7922;43.622;1.476;2023-12-07T10:48:06;99902.28;;;9.78;76.51
15646;BME280;7922;43.622;1.476;2023-12-07T10:50:34;99884.50;;;9.82;76.44
15646;BME280;7922;43.622;1.476;2023-12-07T10:53:05;99893.84;;;9.91;75.03
15646;BME280;7922;43.622;1.476;2023-12-07T10:55:38;99907.47;;;10.24;75.15
15646;BME280;7922;43.622;1.476;2023-12-07T10:58:06;99893.69;;;10.16;74.46
15646;BME280;7922;43.622;1.476;2023-12-07T11:00:33;99863.19;;;10.07;74.38
15646;BME280;7922;43.622;1.476;2023-12-07T11:02:59;99878.09;;;10.09;74.90
15646;BME280;7922;43.622;1.476;2023-12-07T11:05:25;99882.97;;;10.19;74.69
15646;BME280;7922;43.622;1.476;2023-12-07T11:10:25;99855.00;;;10.13;73.96
15646;BME280;7922;43.622;1.476;2023-12-07T11:13:05;99847.28;;;10.29;73.60
15646;BME280;7922;43.622;1.476;2023-12-07T11:15:32;99824.38;;;10.28;73.46
15646;BME280;7922;43.622;1.476;2023-12-07T11:17:58;99853.78;;;10.42;72.75
15646;BME280;7922;43.622;1.476;2023-12-07T11:20:34;99830.34;;;10.33;72.89
15646;BME280;7922;43.622;1.476;2023-12-07T11:23:04;99806.13;;;10.20;73.02
15646;BME280;7922;43.622;1.476;2023-12-07T11:25:29;99835.50;;;10.36;72.31
15646;BME280;7922;43.622;1.476;2023-12-07T11:28:02;99850.88;;;10.67;72.92
15646;BME280;7922;43.622;1.476;2023-12-07T11:30:30;99844.59;;;10.89;71.87
15646;BME280;7922;43.622;1.476;2023-12-07T11:32:56;99830.06;;;10.78;71.77
15646;BME280;7922;43.622;1.476;2023-12-07T11:35:21;99836.06;;;10.82;71.95
15646;BME280;7922;43.622;1.476;2023-12-07T11:38:03;99843.53;;;10.93;71.76
15646;BME280;7922;43.622;1.476;2023-12-07T11:40:29;99842.81;;;10.89;71.35
15646;BME280;7922;43.622;1.476;2023-12-07T11:42:55;99833.84;;;10.92;71.34
15646;BME280;7922;43.622;1.476;2023-12-07T11:45:42;99826.25;;;10.65;72.50
15646;BME280;7922;43.622;1.476;2023-12-07T11:48:13;99826.84;;;10.72;72.37
15646;BME280;7922;43.622;1.476;2023-12-07T11:53:27;99805.28;;;10.60;72.54
15646;BME280;7922;43.622;1.476;2023-12-07T11:55:54;99807.47;;;10.51;72.42
15646;BME280;7922;43.622;1.476;2023-12-07T11:58:19;99809.66;;;10.41;72.90
15646;BME280;7922;43.622;1.476;2023-12-07T12:00:46;99799.63;;;10.29;72.74
15646;BME280;7922;43.622;1.476;2023-12-07T12:03:14;99792.53;;;10.29;72.91
15646;BME280;7922;43.622;1.476;2023-12-07T12:05:41;99783.66;;;10.30;73.08
15646;BME280;7922;43.622;1.476;2023-12-07T12:08:07;99788.78;;;10.35;73.32
15646;BME280;7922;43.622;1.476;2023-12-07T12:10:32;99775.09;;;10.44;73.59
15646;BME280;7922;43.622;1.476;2023-12-07T12:13:01;99779.84;;;10.56;73.14
15646;BME280;7922;43.622;1.476;2023-12-07T12:15:27;99766.66;;;10.55;72.78
15646;BME280;7922;43.622;1.476;2023-12-07T12:17:52;99756.66;;;10.62;73.16
15646;BME280;7922;43.622;1.476;2023-12-07T12:20:18;99744.19;;;10.64;72.98
15646;BME280;7922;43.622;1.476;2023-12-07T12:22:44;99764.16;;;10.71;72.84
15646;BME280;7922;43.622;1.476;2023-12-07T12:25:09;99773.31;;;10.64;72.65
15646;BME280;7922;43.622;1.476;2023-12-07T12:27:35;99757.75;;;10.57;72.76
15646;BME280;7922;43.622;1.476;2023-12-07T12:30:01;99755.22;;;10.54;72.49
15646;BME280;7922;43.622;1.476;2023-12-07T12:32:27;99741.19;;;10.52;72.78
15646;BME280;7922;43.622;1.476;2023-12-07T12:34:52;99734.75;;;10.39;72.66
15646;BME280;7922;43.622;1.476;2023-12-07T12:37:18;99707.56;;;10.35;72.86
15646;BME280;7922;43.622;1.476;2023-12-07T12:39:43;99732.03;;;10.59;72.95
15646;BME280;7922;43.622;1.476;2023-12-07T12:42:08;99736.97;;;10.48;73.32
15646;BME280;7922;43.622;1.476;2023-12-07T12:44:34;99720.22;;;10.48;73.00
15646;BME280;7922;43.622;1.476;2023-12-07T12:46:59;99728.53;;;10.59;73.27
15646;BME280;7922;43.622;1.476;2023-12-07T12:49:35;99704.81;;;10.56;72.85
15646;BME280;7922;43.622;1.476;2023-12-07T12:52:00;99735.38;;;10.63;73.10
15646;BME280;7922;43.622;1.476;2023-12-07T12:54:30;99711.84;;;10.57;72.88
15646;BME280;7922;43.622;1.476;2023-12-07T12:56:56;99730.53;;;10.54;72.78
15646;BME280;7922;43.622;1.476;2023-12-07T12:59:22;99722.00;;;10.47;72.75
15646;BME280;7922;43.622;1.476;2023-12-07T13:01:47;99713.06;;;10.50;73.32
15646;BME280;7922;43.622;1.476;2023-12-07T13:04:12;99699.88;;;10.48;72.94
15646;BME280;7922;43.622;1.476;2023-12-07T13:06:40;99680.63;;;10.45;72.66
15646;BME280;7922;43.622;1.476;2023-12-07T13:09:05;99690.66;;;10.57;73.10
15646;BME280;7922;43.622;1.476;2023-12-07T13:11:30;99688.44;;;10.48;73.09